createdAt,value
2023-05-06T00:00:04.296Z,100479.78
2023-05-06T00:02:32.357Z,100482.44
2023-05-06T00:05:00.940Z,100485.97
2023-05-06T00:07:28.810Z,100488.38
2023-05-06T00:09:58.184Z,100482.88
2023-05-06T00:12:26.036Z,100488.78
2023-05-06T00:14:53.875Z,100485.81
2023-05-06T00:17:21.713Z,100479.28
2023-05-06T00:19:49.662Z,100477.31
2023-05-06T00:22:17.439Z,100473.25
2023-05-06T00:24:45.322Z,100477.91
2023-05-06T00:27:14.565Z,100470.88
2023-05-06T00:29:42.450Z,100465.94
2023-05-06T00:32:10.280Z,100466.09
2023-05-06T00:34:38.209Z,100457.88
2023-05-06T00:37:06.188Z,100459.72
2023-05-06T00:39:34.568Z,100458.06
2023-05-06T00:42:02.795Z,100459.88
2023-05-06T00:44:32.901Z,100466.22
2023-05-06T00:47:01.867Z,100462.03
2023-05-06T00:49:31.036Z,100460.31
2023-05-06T00:52:01.274Z,100462.84
2023-05-06T00:54:29.826Z,100463.00
2023-05-06T00:56:57.893Z,100462.44
2023-05-06T00:59:25.724Z,100456.53
2023-05-06T01:01:55.000Z,100461.34
2023-05-06T01:04:24.105Z,100456.41
2023-05-06T01:06:59.654Z,100457.69
2023-05-06T01:09:33.942Z,100462.66
2023-05-06T01:12:11.114Z,100468.00
2023-05-06T01:14:46.522Z,100470.13
2023-05-06T01:17:19.724Z,100465.78
2023-05-06T01:19:50.193Z,100460.25
2023-05-06T01:22:19.546Z,100466.47
2023-05-06T01:24:48.756Z,100450.81
2023-05-06T01:27:18.328Z,100461.69
2023-05-06T01:29:48.321Z,100454.63
2023-05-06T01:32:32.334Z,100457.63
2023-05-06T01:35:11.892Z,100459.44
2023-05-06T01:37:46.091Z,100463.38
2023-05-06T01:40:17.339Z,100461.28
2023-05-06T01:42:48.755Z,100465.09
2023-05-06T01:45:17.362Z,100470.31
2023-05-06T01:47:46.870Z,100472.13
2023-05-06T01:50:15.232Z,100475.09
2023-05-06T01:52:43.030Z,100474.50
2023-05-06T01:55:11.392Z,100480.00
2023-05-06T01:57:40.842Z,100477.06
2023-05-06T02:00:10.331Z,100478.31
2023-05-06T02:02:38.278Z,100487.19
2023-05-06T02:05:07.284Z,100491.56
2023-05-06T02:07:35.270Z,100486.34
2023-05-06T02:10:03.134Z,100483.69
2023-05-06T02:12:30.946Z,100491.00
2023-05-06T02:15:00.113Z,100495.63
2023-05-06T02:17:27.995Z,100480.00
2023-05-06T02:19:55.860Z,100491.69
2023-05-06T02:22:23.727Z,100492.53
2023-05-06T02:24:51.564Z,100481.69
2023-05-06T02:27:19.378Z,100479.00
2023-05-06T02:29:47.476Z,100481.81
2023-05-06T02:32:16.634Z,100486.19
2023-05-06T02:34:44.482Z,100475.06
2023-05-06T02:37:12.374Z,100479.88
2023-05-06T02:39:40.225Z,100474.75
2023-05-06T02:42:08.023Z,100473.22
2023-05-06T02:44:35.856Z,100462.91
2023-05-06T02:47:03.592Z,100467.41
2023-05-06T02:49:32.887Z,100464.03
2023-05-06T02:52:00.610Z,100467.00
2023-05-06T02:54:28.397Z,100462.75
2023-05-06T02:56:56.250Z,100460.38
2023-05-06T02:59:24.703Z,100455.16
2023-05-06T03:01:52.514Z,100454.44
2023-05-06T03:04:21.252Z,100460.34
2023-05-06T03:06:50.743Z,100459.19
2023-05-06T03:09:18.503Z,100457.75
2023-05-06T03:11:46.290Z,100459.72
2023-05-06T03:14:14.084Z,100465.63
2023-05-06T03:16:41.953Z,100464.91
2023-05-06T03:19:09.855Z,100454.63
2023-05-06T03:21:37.688Z,100457.31
2023-05-06T03:24:07.485Z,100454.75
2023-05-06T03:26:35.308Z,100462.06
2023-05-06T03:29:03.088Z,100454.91
2023-05-06T03:31:30.998Z,100458.56
2023-05-06T03:33:58.931Z,100469.50
2023-05-06T03:36:27.958Z,100465.16
2023-05-06T03:38:55.772Z,100464.28
2023-05-06T03:41:25.819Z,100466.25
2023-05-06T03:43:55.617Z,100466.25
2023-05-06T03:46:23.482Z,100462.50
2023-05-06T03:48:51.293Z,100461.63
2023-05-06T03:51:19.236Z,100464.44
2023-05-06T03:53:47.079Z,100471.59
2023-05-06T03:56:14.762Z,100474.44
2023-05-06T03:58:44.437Z,100471.28
2023-05-06T04:01:12.231Z,100473.91
2023-05-06T04:03:40.151Z,100475.44
2023-05-06T04:06:08.101Z,100469.66
2023-05-06T04:08:35.964Z,100472.44
2023-05-06T04:11:05.885Z,100480.44
2023-05-06T04:13:33.859Z,100480.16
2023-05-06T04:16:04.046Z,100486.59
2023-05-06T04:18:32.829Z,100487.44
2023-05-06T04:21:01.014Z,100486.59
2023-05-06T04:23:28.957Z,100491.22
2023-05-06T04:25:58.075Z,100489.28
2023-05-06T04:28:25.979Z,100487.16
2023-05-06T04:30:53.930Z,100489.59
2023-05-06T04:33:25.086Z,100499.03
2023-05-06T04:35:54.829Z,100489.78
2023-05-06T04:38:25.709Z,100489.53
2023-05-06T04:40:53.959Z,100496.28
2023-05-06T04:43:21.677Z,100493.78
2023-05-06T04:45:50.263Z,100491.84
2023-05-06T04:48:18.797Z,100496.06
2023-05-06T04:50:47.964Z,100497.59
2023-05-06T04:53:16.387Z,100496.63
2023-05-06T04:55:44.614Z,100501.69
2023-05-06T04:58:12.438Z,100508.75
2023-05-06T05:00:40.734Z,100514.69
2023-05-06T05:03:08.616Z,100512.31
2023-05-06T05:05:36.542Z,100510.22
2023-05-06T05:08:06.313Z,100511.34
2023-05-06T05:10:34.161Z,100514.22
2023-05-06T05:13:02.019Z,100510.84
2023-05-06T05:15:30.098Z,100522.84
2023-05-06T05:17:57.984Z,100524.13
2023-05-06T05:20:25.750Z,100526.97
2023-05-06T05:22:53.494Z,100533.50
2023-05-06T05:25:22.672Z,100540.84
2023-05-06T05:27:50.456Z,100544.63
2023-05-06T05:30:18.419Z,100545.78
2023-05-06T05:32:46.397Z,100542.56
2023-05-06T05:35:15.692Z,100546.34
2023-05-06T05:37:43.599Z,100550.19
2023-05-06T05:40:11.803Z,100541.59
2023-05-06T05:42:41.177Z,100549.34
2023-05-06T05:45:10.679Z,100535.25
2023-05-06T05:47:38.673Z,100541.47
2023-05-06T05:50:07.702Z,100540.59
2023-05-06T05:52:35.501Z,100536.63
2023-05-06T05:55:03.250Z,100546.06
2023-05-06T05:57:31.100Z,100540.44
2023-05-06T06:00:00.373Z,100542.00
2023-05-06T06:02:28.234Z,100534.38
2023-05-06T06:04:56.230Z,100536.63
2023-05-06T06:07:24.258Z,100539.72
2023-05-06T06:09:52.061Z,100529.97
2023-05-06T06:12:19.829Z,100529.38
2023-05-06T06:14:48.528Z,100528.97
2023-05-06T06:17:17.980Z,100535.59
2023-05-06T06:19:47.373Z,100530.19
2023-05-06T06:22:15.184Z,100536.69
2023-05-06T06:24:42.959Z,100542.84
2023-05-06T06:27:11.022Z,100551.00
2023-05-06T06:29:38.833Z,100549.56
2023-05-06T06:32:07.663Z,100552.47
2023-05-06T06:34:36.935Z,100553.59
2023-05-06T06:37:06.238Z,100550.16
2023-05-06T06:39:35.911Z,100552.63
2023-05-06T06:42:04.355Z,100557.25
2023-05-06T06:44:32.135Z,100556.34
2023-05-06T06:46:59.901Z,100554.91
2023-05-06T06:49:28.478Z,100556.13
2023-05-06T06:51:57.824Z,100555.81
2023-05-06T06:54:25.807Z,100552.72
2023-05-06T06:56:55.852Z,100553.09
2023-05-06T06:59:23.512Z,100556.16
2023-05-06T07:01:52.902Z,100555.25
2023-05-06T07:04:20.695Z,100550.97
2023-05-06T07:06:48.385Z,100560.47
2023-05-06T07:09:17.511Z,100565.28
2023-05-06T07:11:45.192Z,100559.50
2023-05-06T07:14:13.070Z,100564.09
2023-05-06T07:16:40.884Z,100562.47
2023-05-06T07:19:08.780Z,100568.06
2023-05-06T07:21:36.544Z,100559.34
2023-05-06T07:24:04.492Z,100565.78
2023-05-06T07:26:36.579Z,100561.84
2023-05-06T07:29:05.629Z,100565.13
2023-05-06T07:31:33.583Z,100560.59
2023-05-06T07:34:01.904Z,100560.19
2023-05-06T07:36:30.934Z,100564.91
2023-05-06T07:38:58.694Z,100563.75
2023-05-06T07:41:27.151Z,100559.25
2023-05-06T07:43:56.284Z,100563.66
2023-05-06T07:46:24.082Z,100562.97
2023-05-06T07:48:51.803Z,100566.03
2023-05-06T07:51:19.550Z,100564.53
2023-05-06T07:53:47.276Z,100561.22
2023-05-06T07:56:15.063Z,100569.84
2023-05-06T07:58:42.834Z,100569.69
2023-05-06T08:01:12.077Z,100568.31
2023-05-06T08:03:39.972Z,100571.38
2023-05-06T08:06:08.472Z,100571.81
2023-05-06T08:08:36.208Z,100567.44
2023-05-06T08:11:03.898Z,100574.38
2023-05-06T08:13:33.468Z,100578.69
2023-05-06T08:16:02.320Z,100569.69
2023-05-06T08:18:31.869Z,100573.34
2023-05-06T08:20:59.825Z,100585.78
2023-05-06T08:23:27.718Z,100572.00
2023-05-06T08:25:55.539Z,100574.81
2023-05-06T08:28:24.653Z,100574.50
2023-05-06T08:30:53.052Z,100574.75
2023-05-06T08:33:21.077Z,100580.03
2023-05-06T08:35:50.934Z,100576.91
2023-05-06T08:38:18.809Z,100578.50
2023-05-06T08:40:46.720Z,100585.53
2023-05-06T08:43:15.957Z,100584.47
2023-05-06T08:45:43.933Z,100587.09
2023-05-06T08:48:11.967Z,100580.84
2023-05-06T08:50:43.170Z,100578.50
2023-05-06T08:53:13.846Z,100578.50
2023-05-06T08:55:42.453Z,100574.16
2023-05-06T08:58:12.773Z,100578.00
2023-05-06T09:00:40.845Z,100577.56
2023-05-06T09:03:08.724Z,100578.03
2023-05-06T09:05:36.975Z,100571.69
2023-05-06T09:08:04.913Z,100579.34
2023-05-06T09:10:39.116Z,100574.00
2023-05-06T09:13:06.973Z,100564.69
2023-05-06T09:15:41.019Z,100572.63
2023-05-06T09:18:09.169Z,100558.78
2023-05-06T09:20:41.466Z,100563.56
2023-05-06T09:23:09.874Z,100556.25
2023-05-06T09:25:39.520Z,100566.50
2023-05-06T09:28:08.944Z,100569.78
2023-05-06T09:30:40.853Z,100565.59
2023-05-06T09:33:09.190Z,100564.59
2023-05-06T09:35:39.065Z,100562.88
2023-05-06T09:38:07.534Z,100562.56
2023-05-06T09:40:36.130Z,100565.00
2023-05-06T09:43:06.157Z,100560.75
2023-05-06T09:45:34.581Z,100563.22
2023-05-06T09:48:02.528Z,100558.44
2023-05-06T09:50:30.593Z,100559.56
2023-05-06T09:53:03.713Z,100563.19
2023-05-06T09:55:32.100Z,100551.94
2023-05-06T09:58:01.922Z,100560.84
2023-05-06T10:00:32.531Z,100551.06
2023-05-06T10:03:00.748Z,100549.91
2023-05-06T10:05:30.084Z,100540.13
2023-05-06T10:07:58.420Z,100536.78
2023-05-06T10:10:28.314Z,100531.53
2023-05-06T10:12:56.814Z,100537.69
2023-05-06T10:15:27.092Z,100539.41
2023-05-06T10:17:56.886Z,100534.22
2023-05-06T10:20:27.701Z,100534.66
2023-05-06T10:23:04.604Z,100534.47
2023-05-06T10:25:37.983Z,100535.97
2023-05-06T10:28:09.232Z,100525.75
2023-05-06T10:30:42.116Z,100528.06
2023-05-06T10:33:12.886Z,100521.38
2023-05-06T10:35:49.320Z,100524.09
2023-05-06T10:38:24.667Z,100521.78
2023-05-06T10:40:53.466Z,100513.19
2023-05-06T10:43:25.747Z,100513.38
2023-05-06T10:46:06.858Z,100508.56
2023-05-06T10:48:37.746Z,100515.88
2023-05-06T10:51:25.934Z,100501.47
2023-05-06T10:54:02.400Z,100494.53
2023-05-06T10:56:32.007Z,100493.22
2023-05-06T10:59:08.202Z,100495.34
2023-05-06T11:01:37.154Z,100495.22
2023-05-06T11:04:12.505Z,100487.91
2023-05-06T11:06:42.333Z,100493.78
2023-05-06T11:09:17.965Z,100485.03
2023-05-06T11:11:51.003Z,100492.22
2023-05-06T11:14:30.751Z,100485.75
2023-05-06T11:16:59.848Z,100475.09
2023-05-06T11:19:31.207Z,100474.28
2023-05-06T11:22:00.193Z,100475.28
2023-05-06T11:24:29.241Z,100479.31
2023-05-06T11:26:59.403Z,100482.22
2023-05-06T11:29:27.771Z,100480.38
2023-05-06T11:31:56.461Z,100483.69
2023-05-06T11:34:30.443Z,100487.63
2023-05-06T11:37:03.497Z,100487.63
2023-05-06T11:39:38.714Z,100472.34
2023-05-06T11:42:08.585Z,100475.69
2023-05-06T11:44:37.881Z,100476.69
2023-05-06T11:47:07.479Z,100473.34
2023-05-06T11:49:41.206Z,100478.34
2023-05-06T11:52:09.815Z,100482.53
2023-05-06T11:54:40.274Z,100476.47
2023-05-06T11:57:08.278Z,100471.03
2023-05-06T11:59:38.378Z,100469.78
2023-05-06T12:02:07.502Z,100474.56
2023-05-06T12:04:40.576Z,100463.69
2023-05-06T12:07:08.991Z,100461.38
2023-05-06T12:09:37.691Z,100474.75
2023-05-06T12:12:06.573Z,100467.84
2023-05-06T12:14:35.296Z,100467.41
2023-05-06T12:17:03.557Z,100470.75
2023-05-06T12:19:31.922Z,100466.78
2023-05-06T12:22:19.533Z,100466.16
2023-05-06T12:24:47.933Z,100468.88
2023-05-06T12:27:15.787Z,100462.16
2023-05-06T12:29:53.788Z,100462.16
2023-05-06T12:32:21.943Z,100458.44
2023-05-06T12:34:49.782Z,100456.34
2023-05-06T12:37:27.067Z,100457.00
2023-05-06T12:39:58.295Z,100460.94
2023-05-06T12:42:27.032Z,100457.16
2023-05-06T12:44:54.736Z,100453.22
2023-05-06T12:47:23.775Z,100445.25
2023-05-06T12:49:52.889Z,100450.50
2023-05-06T12:52:21.844Z,100455.09
2023-05-06T12:54:52.819Z,100441.28
2023-05-06T12:57:21.392Z,100437.97
2023-05-06T12:59:49.936Z,100437.38
2023-05-06T13:02:17.957Z,100432.78
2023-05-06T13:04:47.201Z,100430.94
2023-05-06T13:07:15.093Z,100435.97
2023-05-06T13:09:44.546Z,100433.66
2023-05-06T13:12:13.897Z,100429.06
2023-05-06T13:14:41.632Z,100428.47
2023-05-06T13:17:09.721Z,100429.09
2023-05-06T13:19:37.747Z,100427.84
2023-05-06T13:22:05.560Z,100424.88
2023-05-06T13:24:33.396Z,100424.03
2023-05-06T13:27:01.568Z,100414.00
2023-05-06T13:29:30.903Z,100413.56
2023-05-06T13:31:59.176Z,100411.91
2023-05-06T13:34:27.208Z,100404.13
2023-05-06T13:36:56.599Z,100403.09
2023-05-06T13:39:25.058Z,100391.75
2023-05-06T13:41:54.149Z,100401.63
2023-05-06T13:44:22.596Z,100398.50
2023-05-06T13:46:52.526Z,100388.03
2023-05-06T13:49:20.405Z,100391.53
2023-05-06T13:51:48.347Z,100388.41
2023-05-06T13:54:16.162Z,100390.31
2023-05-06T13:56:43.965Z,100392.41
2023-05-06T13:59:14.036Z,100393.06
2023-05-06T14:01:42.629Z,100381.78
2023-05-06T14:04:12.339Z,100381.97
2023-05-06T14:06:40.620Z,100376.94
2023-05-06T14:09:08.592Z,100375.91
2023-05-06T14:11:36.325Z,100371.06
2023-05-06T14:14:04.433Z,100374.63
2023-05-06T14:16:32.254Z,100376.69
2023-05-06T14:19:00.514Z,100365.59
2023-05-06T14:21:29.678Z,100369.13
2023-05-06T14:23:57.510Z,100366.19
2023-05-06T14:26:25.733Z,100363.22
2023-05-06T14:28:53.488Z,100360.63
2023-05-06T14:31:21.244Z,100366.03
2023-05-06T14:33:49.070Z,100364.34
2023-05-06T14:36:19.516Z,100348.63
2023-05-06T14:38:48.702Z,100345.03
2023-05-06T14:41:16.569Z,100343.91
2023-05-06T14:43:44.340Z,100348.69
2023-05-06T14:46:14.392Z,100337.78
2023-05-06T14:48:42.635Z,100345.31
2023-05-06T14:51:10.351Z,100347.22
2023-05-06T14:53:38.030Z,100337.34
2023-05-06T14:56:09.027Z,100334.41
2023-05-06T14:58:37.038Z,100339.44
2023-05-06T15:01:04.927Z,100329.81
2023-05-06T15:03:32.864Z,100334.91
2023-05-06T15:06:00.867Z,100332.31
2023-05-06T15:08:28.718Z,100332.84
2023-05-06T15:10:56.526Z,100324.53
2023-05-06T15:13:25.802Z,100331.53
2023-05-06T15:15:53.536Z,100323.63
2023-05-06T15:18:21.219Z,100325.13
2023-05-06T15:20:48.884Z,100329.72
2023-05-06T15:23:17.822Z,100331.19
2023-05-06T15:25:45.570Z,100325.75
2023-05-06T15:28:13.424Z,100331.59
2023-05-06T15:30:42.613Z,100333.06
2023-05-06T15:33:10.394Z,100332.88
2023-05-06T15:35:38.203Z,100334.34
2023-05-06T15:38:06.093Z,100328.88
2023-05-06T15:40:33.867Z,100332.00
2023-05-06T15:43:01.660Z,100329.47
2023-05-06T15:45:29.408Z,100332.34
2023-05-06T15:47:58.667Z,100328.16
2023-05-06T15:52:59.353Z,100323.72
2023-05-06T15:55:27.318Z,100331.22
2023-05-06T15:57:55.842Z,100323.91
2023-05-06T16:00:24.133Z,100328.28
2023-05-06T16:02:51.938Z,100318.84
2023-05-06T16:05:21.078Z,100321.56
2023-05-06T16:07:49.289Z,100330.78
2023-05-06T16:10:17.041Z,100322.63
2023-05-06T16:12:44.956Z,100322.63
2023-05-06T16:15:12.829Z,100319.06
2023-05-06T16:17:40.791Z,100321.13
2023-05-06T16:20:10.349Z,100319.91
2023-05-06T16:22:40.896Z,100312.84
2023-05-06T16:25:09.162Z,100310.75
2023-05-06T16:27:36.913Z,100312.41
2023-05-06T16:30:05.245Z,100310.53
2023-05-06T16:32:33.087Z,100309.94
2023-05-06T16:35:00.874Z,100307.84
2023-05-06T16:37:29.121Z,100302.88
2023-05-06T16:39:58.408Z,100308.50
2023-05-06T16:42:26.118Z,100309.31
2023-05-06T16:44:54.226Z,100311.44
2023-05-06T16:47:24.176Z,100301.22
2023-05-06T16:49:52.305Z,100303.69
2023-05-06T16:52:20.720Z,100302.44
2023-05-06T16:54:48.578Z,100304.13
2023-05-06T16:57:17.748Z,100297.44
2023-05-06T16:59:45.600Z,100295.56
2023-05-06T17:02:13.379Z,100297.84
2023-05-06T17:04:41.994Z,100296.38
2023-05-06T17:07:11.127Z,100288.41
2023-05-06T17:09:39.451Z,100291.53
2023-05-06T17:12:07.896Z,100279.78
2023-05-06T17:14:37.176Z,100288.75
2023-05-06T17:17:05.510Z,100286.84
2023-05-06T17:19:34.092Z,100283.69
2023-05-06T17:22:01.838Z,100286.19
2023-05-06T17:24:29.549Z,100282.38
2023-05-06T17:26:57.333Z,100288.22
2023-05-06T17:29:25.145Z,100277.78
2023-05-06T17:31:54.389Z,100282.75
2023-05-06T17:36:55.074Z,100281.03
2023-05-06T17:39:22.810Z,100280.81
2023-05-06T17:41:50.616Z,100272.63
2023-05-06T17:44:18.493Z,100277.41
2023-05-06T17:46:46.619Z,100275.13
2023-05-06T17:49:15.804Z,100276.56
2023-05-06T17:51:45.570Z,100278.00
2023-05-06T17:54:13.487Z,100274.66
2023-05-06T17:56:41.420Z,100275.03
2023-05-06T17:59:09.597Z,100273.75
2023-05-06T18:01:37.668Z,100281.25
2023-05-06T18:04:05.810Z,100281.84
2023-05-06T18:06:35.089Z,100273.47
2023-05-06T18:09:03.192Z,100276.59
2023-05-06T18:11:31.071Z,100278.84
2023-05-06T18:13:58.809Z,100286.53
2023-05-06T18:16:26.574Z,100286.03
2023-05-06T18:18:54.373Z,100292.06
2023-05-06T18:21:22.331Z,100288.06
2023-05-06T18:23:53.590Z,100292.22
2023-05-06T18:26:43.447Z,100291.94
2023-05-06T18:29:12.320Z,100288.53
2023-05-06T18:31:40.096Z,100283.25
2023-05-06T18:34:07.979Z,100287.59
2023-05-06T18:36:36.518Z,100294.16
2023-05-06T18:39:06.274Z,100295.13
2023-05-06T18:41:34.144Z,100297.94
2023-05-06T18:44:03.298Z,100293.50
2023-05-06T18:46:31.084Z,100294.47
2023-05-06T18:48:59.177Z,100290.97
2023-05-06T18:51:27.494Z,100295.97
2023-05-06T18:53:55.344Z,100293.34
2023-05-06T18:56:24.603Z,100295.97
2023-05-06T18:58:52.353Z,100302.78
2023-05-06T19:01:20.088Z,100301.84
2023-05-06T19:03:47.881Z,100295.53
2023-05-06T19:06:15.747Z,100304.56
2023-05-06T19:08:43.548Z,100307.84
2023-05-06T19:11:16.062Z,100321.25
2023-05-06T19:13:46.287Z,100317.25
2023-05-06T19:16:14.888Z,100314.94
2023-05-06T19:18:42.742Z,100320.03
2023-05-06T19:21:10.858Z,100322.91
2023-05-06T19:23:38.703Z,100324.53
2023-05-06T19:26:06.977Z,100319.88
2023-05-06T19:28:35.044Z,100319.88
2023-05-06T19:31:09.277Z,100319.44
2023-05-06T19:33:37.254Z,100319.97
2023-05-06T19:36:06.080Z,100315.94
2023-05-06T19:38:34.058Z,100317.34
2023-05-06T19:41:02.099Z,100326.19
2023-05-06T19:43:29.855Z,100319.47
2023-05-06T19:45:57.823Z,100324.56
2023-05-06T19:48:26.985Z,100323.44
2023-05-06T19:50:54.811Z,100324.84
2023-05-06T19:53:24.108Z,100318.13
2023-05-06T19:55:52.016Z,100323.19
2023-05-06T19:58:19.850Z,100329.97
2023-05-06T20:00:47.647Z,100329.66
2023-05-06T20:03:15.628Z,100325.00
2023-05-06T20:05:44.893Z,100330.75
2023-05-06T20:08:12.758Z,100326.53
2023-05-06T20:10:40.525Z,100331.47
2023-05-06T20:13:08.352Z,100327.25
2023-05-06T20:15:36.518Z,100325.94
2023-05-06T20:18:04.661Z,100326.63
2023-05-06T20:20:34.475Z,100328.00
2023-05-06T20:23:04.209Z,100328.38
2023-05-06T20:25:32.163Z,100322.47
2023-05-06T20:28:00.432Z,100324.03
2023-05-06T20:30:28.255Z,100327.25
2023-05-06T20:32:56.286Z,100323.03
2023-05-06T20:35:24.338Z,100328.63
2023-05-06T20:37:52.033Z,100327.31
2023-05-06T20:40:21.452Z,100339.47
2023-05-06T20:42:49.296Z,100332.72
2023-05-06T20:45:18.127Z,100332.25
2023-05-06T20:47:45.987Z,100330.72
2023-05-06T20:50:17.011Z,100327.56
2023-05-06T20:52:46.070Z,100330.41
2023-05-06T20:55:14.758Z,100334.31
2023-05-06T20:57:47.008Z,100335.63
2023-05-06T21:00:14.925Z,100333.47
2023-05-06T21:02:42.792Z,100335.00
2023-05-06T21:05:11.739Z,100334.34
2023-05-06T21:07:39.830Z,100339.41
2023-05-06T21:10:08.228Z,100338.25
2023-05-06T21:12:36.032Z,100339.63
2023-05-06T21:15:06.241Z,100346.38
2023-05-06T21:17:34.073Z,100342.63
2023-05-06T21:20:04.070Z,100338.59
2023-05-06T21:22:32.701Z,100341.81
2023-05-06T21:25:01.035Z,100339.81
2023-05-06T21:27:28.740Z,100341.16
2023-05-06T21:29:56.683Z,100346.88
2023-05-06T21:32:25.938Z,100345.53
2023-05-06T21:34:53.758Z,100348.72
2023-05-06T21:37:21.508Z,100349.72
2023-05-06T21:39:49.227Z,100344.03
2023-05-06T21:42:17.019Z,100346.03
2023-05-06T21:44:44.708Z,100337.47
2023-05-06T21:47:12.522Z,100335.59
2023-05-06T21:49:41.666Z,100336.94
2023-05-06T21:52:09.403Z,100341.81
2023-05-06T21:54:37.124Z,100331.41
2023-05-06T21:57:07.938Z,100338.81
2023-05-06T21:59:36.355Z,100335.59
2023-05-06T22:02:04.358Z,100328.19
2023-05-06T22:04:32.164Z,100327.00
2023-05-06T22:07:01.286Z,100322.13
2023-05-06T22:09:29.071Z,100334.06
2023-05-06T22:11:56.789Z,100328.19
2023-05-06T22:14:30.204Z,100327.50
2023-05-06T22:17:01.727Z,100324.31
2023-05-06T22:19:29.501Z,100320.06
2023-05-06T22:21:57.757Z,100318.41
2023-05-06T22:24:28.291Z,100322.41
2023-05-06T22:26:56.057Z,100320.38
2023-05-06T22:29:23.786Z,100324.06
2023-05-06T22:31:51.596Z,100324.25
2023-05-06T22:34:19.425Z,100317.16
2023-05-06T22:36:47.518Z,100319.19
2023-05-06T22:39:15.260Z,100330.09
2023-05-06T22:41:44.617Z,100333.13
2023-05-06T22:44:13.716Z,100328.75
2023-05-06T22:46:41.570Z,100331.78
2023-05-06T22:49:09.726Z,100328.22
2023-05-06T22:51:37.560Z,100325.72
2023-05-06T22:54:05.489Z,100333.78
2023-05-06T22:56:33.280Z,100325.03
2023-05-06T22:59:02.452Z,100320.81
2023-05-06T23:01:32.093Z,100324.53
2023-05-06T23:04:00.614Z,100327.22
2023-05-06T23:06:28.734Z,100330.06
2023-05-06T23:08:56.578Z,100326.69
2023-05-06T23:11:24.404Z,100325.31
2023-05-06T23:13:52.279Z,100333.56
2023-05-06T23:16:21.651Z,100338.09
2023-05-06T23:18:49.413Z,100339.41
2023-05-06T23:21:17.063Z,100340.41
2023-05-06T23:23:44.875Z,100339.72
2023-05-06T23:26:12.662Z,100353.16
2023-05-06T23:28:40.340Z,100351.66
2023-05-06T23:31:08.153Z,100341.88
2023-05-06T23:33:37.318Z,100338.53
2023-05-06T23:36:05.331Z,100345.75
2023-05-06T23:38:33.130Z,100344.09
2023-05-06T23:41:00.847Z,100340.53
2023-05-06T23:43:28.604Z,100336.31
2023-05-06T23:45:56.401Z,100336.66
2023-05-06T23:48:24.149Z,100336.00
2023-05-06T23:50:54.483Z,100335.31
2023-05-06T23:53:22.401Z,100335.63
2023-05-06T23:55:50.805Z,100345.69
2023-05-06T23:58:18.597Z,100342.31
